Time;durP1;ratioP1;P1;durP2;ratioP2;P2;SDS_P1;SDS_P2;PMS_P1;PMS_P2;Temp;Humidity;BMP_temperature;BMP_pressure;BME280_temperature;BME280_humidity;BME280_pressure;Samples;Min_cycle;Max_cycle;Signal;HPM_P1;HPM_P2
2021/12/14 00:02:14;;;;;;;8.50;7.13;;;;;;;8.68;76.71;99997.44;2617781;39;20426;-67
2021/12/14 00:04:45;;;;;;;7.20;6.50;;;;;;;8.72;76.42;99991.88;2618631;54;20042;-68
2021/12/14 00:07:18;;;;;;;7.32;5.95;;;;;;;8.80;76.23;99991.94;2618252;54;20038;-68
2021/12/14 00:10:00;;;;;;;6.63;5.90;;;;;;;8.81;76.13;99990.97;2618049;54;20033;-68
2021/12/14 00:12:38;;;;;;;6.75;5.85;;;;;;;8.76;75.92;99988.78;2617642;39;20499;-68
2021/12/14 00:15:13;;;;;;;6.97;5.07;;;;;;;8.79;76.21;99992.94;2617676;47;20030;-67
2021/12/14 00:17:47;;;;;;;7.80;6.72;;;;;;;8.86;75.84;99991.34;2617281;47;20031;-67
2021/12/14 00:20:21;;;;;;;8.00;6.97;;;;;;;8.85;75.49;99982.59;2618574;47;20031;-67
2021/12/14 00:25:39;;;;;;;5.78;5.05;;;;;;;8.70;75.90;99986.78;2620633;47;20023;-68
2021/12/14 00:28:12;;;;;;;7.88;5.05;;;;;;;8.68;76.21;99992.16;2621982;54;20065;-66
2021/12/14 00:30:44;;;;;;;5.90;5.30;;;;;;;8.73;76.00;100001.44;2621132;54;20639;-67
2021/12/14 00:33:19;;;;;;;6.63;5.50;;;;;;;8.85;75.79;99994.94;2620131;49;20142;-68
2021/12/14 00:35:50;;;;;;;5.78;5.18;;;;;;;8.93;75.49;99995.00;2621329;54;20033;-68
2021/12/14 00:38:24;;;;;;;6.65;5.80;;;;;;;8.93;75.25;99987.94;2622604;54;20030;-67
2021/12/14 00:41:01;;;;;;;7.33;5.50;;;;;;;8.87;75.30;99993.81;2622266;47;20034;-66
2021/12/14 00:43:30;;;;;;;6.68;6.03;;;;;;;8.86;75.09;99983.44;2624846;54;20279;-68
2021/12/14 00:46:00;;;;;;;6.80;6.10;;;;;;;8.83;75.10;99987.19;2624784;54;20035;-67
2021/12/14 00:48:30;;;;;;;7.47;6.78;;;;;;;8.83;75.19;99989.00;2623727;47;20074;-66
2021/12/14 00:51:02;;;;;;;7.72;6.93;;;;;;;8.80;75.00;99982.22;2623977;47;20030;-68
2021/12/14 00:53:33;;;;;;;8.57;7.22;;;;;;;8.80;75.17;99979.59;2624491;47;20031;-68
2021/12/14 00:56:10;;;;;;;7.20;6.53;;;;;;;8.80;74.87;99979.59;2624719;54;20030;-66
2021/12/14 00:58:41;;;;;;;7.72;6.93;;;;;;;8.80;75.14;99971.69;2624389;54;20111;-68
2021/12/14 01:01:14;;;;;;;9.23;6.93;;;;;;;8.82;74.74;99972.38;2623751;47;20035;-67
2021/12/14 01:03:46;;;;;;;;;;;;;;;8.78;74.86;99971.00;2624572;47;20054;-67
2021/12/14 01:06:16;;;;;;;8.90;6.45;;;;;;;8.76;74.31;99966.88;2622969;54;19938;-67
2021/12/14 01:08:49;;;;;;;7.40;6.72;;;;;;;8.72;74.64;99968.97;2618246;54;20034;-67
2021/12/14 01:11:28;;;;;;;7.07;6.28;;;;;;;8.68;74.57;99968.44;2619102;47;20123;-68
2021/12/14 01:14:04;;;;;;;7.57;6.85;;;;;;;8.68;74.80;99972.91;2620876;39;20473;-68
2021/12/14 01:16:52;;;;;;;8.32;7.53;;;;;;;8.74;74.45;99974.13;2617167;54;20026;-68
2021/12/14 01:19:27;;;;;;;9.63;6.80;;;;;;;8.73;74.39;99978.53;2617824;39;20425;-67
2021/12/14 01:25:07;;;;;;;6.18;4.93;;;;;;;8.57;74.14;99981.03;2617075;54;20034;-67
2021/12/14 01:27:52;;;;;;;5.68;5.18;;;;;;;8.55;73.79;99975.09;2617557;47;20564;-68
2021/12/14 01:30:30;;;;;;;6.47;5.65;;;;;;;8.58;73.94;99980.06;2617396;47;20061;-68
2021/12/14 01:33:04;;;;;;;7.90;7.10;;;;;;;8.67;73.73;99987.06;2616989;54;20553;-68
2021/12/14 01:35:37;;;;;;;8.00;7.07;;;;;;;8.71;73.87;99984.97;2617787;54;20034;-68
2021/12/14 01:38:31;;;;;;;7.03;6.35;;;;;;;8.65;73.84;99989.00;2617235;47;20023;-68
2021/12/14 01:41:03;;;;;;;;;;;;;;;8.61;74.00;99993.78;2617206;54;20045;-68
2021/12/14 01:43:45;;;;;;;7.65;5.78;;;;;;;8.63;73.61;99994.44;2617176;54;19950;-68
2021/12/14 01:46:36;;;;;;;9.05;8.15;;;;;;;8.65;73.58;99984.59;2617734;54;20026;-69
2021/12/14 01:49:28;;;;;;;8.73;7.85;;;;;;;8.63;74.10;99986.53;2617661;54;20015;-68
2021/12/14 01:52:37;;;;;;;9.25;7.53;;;;;;;8.66;73.40;99990.69;2617011;54;20077;-68
2021/12/14 01:55:12;;;;;;;9.15;8.25;;;;;;;8.68;73.57;99996.63;2616564;54;20026;-69
2021/12/14 01:57:43;;;;;;;8.57;7.35;;;;;;;8.64;73.45;99996.09;2617200;54;20042;-67
2021/12/14 02:00:22;;;;;;;8.02;7.22;;;;;;;8.66;73.85;99985.41;2617261;54;20023;-68
2021/12/14 02:02:52;;;;;;;7.80;6.60;;;;;;;8.66;73.67;99996.78;2617643;54;20045;-68
2021/12/14 02:05:26;;;;;;;8.90;8.02;;;;;;;8.70;73.94;99989.41;2617829;54;20023;-68
2021/12/14 02:07:56;;;;;;;;;;;;;;;8.71;73.57;99995.50;2617402;54;20019;-68
2021/12/14 02:10:30;;;;;;;9.15;8.25;;;;;;;8.72;73.58;100007.69;2617453;54;20022;-68
2021/12/14 02:13:00;;;;;;;9.40;8.27;;;;;;;8.74;73.69;100011.03;2617989;54;20027;-68
2021/12/14 02:15:40;;;;;;;10.20;8.70;;;;;;;8.79;73.53;100012.22;2617700;54;20027;-67
2021/12/14 02:18:19;;;;;;;10.50;9.50;;;;;;;8.79;73.54;100006.13;2617088;54;20033;-68
2021/12/14 02:20:56;;;;;;;10.93;9.25;;;;;;;8.73;73.46;99998.78;2617233;54;20034;-68
2021/12/14 02:23:27;;;;;;;10.40;8.98;;;;;;;8.67;73.55;100008.97;2617442;54;20049;-67
2021/12/14 02:25:59;;;;;;;11.57;9.00;;;;;;;8.64;73.85;100008.44;2617150;47;20034;-67
2021/12/14 02:28:29;;;;;;;11.27;10.13;;;;;;;8.64;73.47;100003.16;2616945;54;20035;-68
2021/12/14 02:31:03;;;;;;;9.82;8.65;;;;;;;8.65;73.67;100020.63;2616881;47;20554;-68
2021/12/14 02:33:37;;;;;;;9.40;8.10;;;;;;;8.58;73.43;100032.78;2616866;54;20118;-68
2021/12/14 02:36:13;;;;;;;9.77;8.68;;;;;;;8.57;74.23;100031.09;2616892;54;20027;-68
2021/12/14 02:38:45;;;;;;;10.27;9.00;;;;;;;8.61;73.77;100029.81;2617161;47;20155;-68
2021/12/14 02:41:17;;;;;;;;;;;;;;;8.57;74.13;100024.06;2616867;54;21019;-68
2021/12/14 02:43:56;;;;;;;10.25;9.00;;;;;;;8.59;74.08;100013.34;2617642;31;20390;-68
2021/12/14 02:46:36;;;;;;;12.65;10.10;;;;;;;8.60;74.27;99997.38;2616685;54;20034;-67
2021/12/14 02:49:09;;;;;;;10.85;9.75;;;;;;;8.56;74.08;99996.00;2616828;54;20105;-68
2021/12/14 02:51:43;;;;;;;9.50;8.57;;;;;;;8.55;74.53;100017.25;2617327;54;20030;-68
2021/12/14 02:54:15;;;;;;;10.25;9.15;;;;;;;8.54;73.93;100007.69;2616932;47;20037;-68
2021/12/14 02:56:49;;;;;;;11.05;9.68;;;;;;;8.57;74.23;99988.94;2617294;47;20082;-68
2021/12/14 02:59:23;;;;;;;11.47;10.27;;;;;;;8.59;74.10;99990.44;2618093;47;20034;-68
2021/12/14 03:01:56;;;;;;;11.63;10.27;;;;;;;8.59;74.13;100000.16;2617481;47;20374;-68
2021/12/14 03:04:26;;;;;;;10.57;9.13;;;;;;;8.52;73.97;99991.19;2617903;54;20147;-67
2021/12/14 03:07:02;;;;;;;12.88;10.50;;;;;;;8.52;74.42;99989.38;2617755;54;20030;-67
2021/12/14 03:09:39;;;;;;;12.82;11.63;;;;;;;8.54;74.32;99986.63;2617811;46;20030;-68
2021/12/14 03:12:15;;;;;;;11.30;10.13;;;;;;;8.51;74.29;99981.63;2617455;47;20023;-67
2021/12/14 03:14:52;;;;;;;11.68;10.23;;;;;;;8.48;74.51;99974.84;2618373;54;20030;-68
2021/12/14 03:17:22;;;;;;;15.73;10.15;;;;;;;8.47;74.51;99970.56;2618285;54;20027;-68
2021/12/14 03:19:56;;;;;;;10.85;9.75;;;;;;;8.47;74.43;99967.94;2617614;47;20015;-68
2021/12/14 03:22:34;;;;;;;13.68;11.10;;;;;;;8.46;74.28;99973.38;2618550;39;20469;-68
2021/12/14 03:25:05;;;;;;;10.95;9.85;;;;;;;8.41;74.40;99976.47;2618368;54;20034;-68
2021/12/14 03:27:37;;;;;;;11.27;9.35;;;;;;;8.41;74.63;99976.47;2617681;54;20031;-68
2021/12/14 03:30:21;;;;;;;8.38;7.57;;;;;;;8.43;74.93;99980.56;2617763;51;20550;-68
2021/12/14 03:32:51;;;;;;;10.50;8.90;;;;;;;8.48;74.75;99972.22;2617986;54;20070;-67
2021/12/14 03:35:21;;;;;;;11.27;9.52;;;;;;;8.49;74.41;99967.78;2618293;54;20027;-68
2021/12/14 03:38:08;;;;;;;10.35;9.23;;;;;;;8.55;74.50;99980.38;2618175;54;20023;-68
2021/12/14 03:40:38;;;;;;;15.55;11.98;;;;;;;8.50;74.51;99975.53;2617489;54;20590;-68
2021/12/14 03:43:14;;;;;;;11.98;10.77;;;;;;;8.50;74.20;99980.81;2617435;47;20034;-68
2021/12/14 03:45:45;;;;;;;13.75;11.98;;;;;;;8.48;74.09;99971.38;2617663;51;20038;-67
2021/12/14 03:48:16;;;;;;;12.40;11.07;;;;;;;8.43;74.58;99969.22;2617493;54;20072;-67
2021/12/14 03:50:46;;;;;;;13.07;10.85;;;;;;;8.40;74.66;99977.41;2617464;47;20029;-68
2021/12/14 03:53:22;;;;;;;12.43;10.80;;;;;;;8.44;74.99;99976.97;2617252;47;20071;-67
2021/12/14 03:55:56;;;;;;;13.85;11.82;;;;;;;8.39;74.91;99978.41;2617473;54;20026;-69
2021/12/14 03:58:35;;;;;;;15.52;11.98;;;;;;;8.42;75.02;99988.66;2617553;46;20035;-68
2021/12/14 04:01:12;;;;;;;13.15;11.75;;;;;;;8.46;74.48;99986.53;2617435;46;20119;-68
2021/12/14 04:03:50;;;;;;;12.68;11.32;;;;;;;8.42;74.69;99980.75;2617436;47;20022;-68
2021/12/14 04:06:25;;;;;;;13.43;11.27;;;;;;;8.39;75.17;99973.94;2617353;54;20051;-69
2021/12/14 04:08:59;;;;;;;12.55;11.20;;;;;;;8.40;75.19;99964.22;2617649;54;20058;-67
2021/12/14 04:11:30;;;;;;;12.75;11.05;;;;;;;8.37;75.08;99972.47;2618101;31;20479;-68
2021/12/14 04:14:00;;;;;;;13.77;11.25;;;;;;;8.37;75.09;99978.56;2618114;54;20783;-67
2021/12/14 04:16:39;;;;;;;11.98;10.30;;;;;;;8.39;75.33;99992.41;2618007;54;20038;-68
2021/12/14 04:19:11;;;;;;;12.90;11.45;;;;;;;8.39;74.89;99981.03;2617553;47;20053;-68
2021/12/14 04:21:44;;;;;;;14.23;11.68;;;;;;;8.36;75.26;99953.13;2617366;54;20133;-68
2021/12/14 04:24:23;;;;;;;13.77;11.95;;;;;;;8.35;75.27;99946.22;2618717;47;20042;-69
2021/12/14 04:26:54;;;;;;;14.57;12.32;;;;;;;8.30;75.27;99940.56;2620313;54;20034;-67
2021/12/14 04:29:24;;;;;;;12.63;10.80;;;;;;;8.28;75.28;99950.41;2623807;54;20038;-70
2021/12/14 04:31:54;;;;;;;13.00;11.50;;;;;;;8.24;75.49;99956.13;2624684;39;20094;-68
2021/12/14 04:34:24;;;;;;;11.63;10.43;;;;;;;8.21;75.59;99943.28;2624038;47;20035;-68
2021/12/14 04:36:55;;;;;;;11.40;10.18;;;;;;;8.21;75.84;99943.28;2624828;47;20022;-68
2021/12/14 04:39:38;;;;;;;10.77;9.05;;;;;;;8.20;75.73;99942.44;2625046;54;20045;-68
2021/12/14 04:53:33;;;;;;;10.23;8.68;;;;;;;8.12;75.56;99937.09;2620616;47;20022;-69
2021/12/14 04:56:07;;;;;;;12.27;9.90;;;;;;;8.09;75.81;99922.44;2621548;54;20034;-68
2021/12/14 04:58:41;;;;;;;12.52;10.05;;;;;;;8.04;75.55;99926.47;2620205;46;20034;-67
2021/12/14 05:01:13;;;;;;;14.43;11.55;;;;;;;7.96;75.84;99916.69;2623345;47;20026;-68
2021/12/14 05:03:46;;;;;;;13.93;11.35;;;;;;;7.92;76.05;99908.28;2620529;47;20023;-69
2021/12/14 05:06:21;;;;;;;12.15;10.73;;;;;;;7.88;76.46;99917.44;2622267;54;20037;-68
2021/12/14 05:11:39;;;;;;;16.08;11.90;;;;;;;7.95;76.61;99897.41;2625511;54;20073;-69
2021/12/14 05:14:12;;;;;;;17.95;13.57;;;;;;;7.95;76.60;99902.69;2622259;51;20026;-69
2021/12/14 05:16:58;;;;;;;19.23;13.82;;;;;;;7.97;76.84;99894.66;2626417;54;20030;-67
2021/12/14 05:19:35;;;;;;;18.35;12.98;;;;;;;8.01;76.67;99896.00;2617515;54;20551;-68
2021/12/14 05:22:09;;;;;;;16.25;12.98;;;;;;;7.97;76.49;99897.28;2621750;54;20057;-69
2021/12/14 05:24:50;;;;;;;16.52;12.82;;;;;;;7.93;76.78;99878.31;2621203;47;20031;-69
2021/12/14 05:27:28;;;;;;;16.45;12.38;;;;;;;7.90;76.80;99868.06;2622813;47;20038;-68
2021/12/14 05:30:10;;;;;;;16.33;11.63;;;;;;;7.83;76.98;99863.56;2621337;47;20031;-68
2021/12/14 05:32:52;;;;;;;15.73;12.48;;;;;;;7.86;77.16;99853.56;2618002;47;20159;-70
2021/12/14 05:35:22;;;;;;;23.13;11.55;;;;;;;7.82;77.09;99868.00;2618398;47;20128;-68
2021/12/14 05:37:53;;;;;;;13.98;11.05;;;;;;;7.82;77.04;99875.88;2618282;47;20534;-71
2021/12/14 05:40:44;;;;;;;14.53;11.57;;;;;;;7.84;77.37;99860.78;2618252;47;20117;-69
2021/12/14 05:43:17;;;;;;;12.10;10.25;;;;;;;7.86;76.99;99863.25;2618071;54;20022;-68
2021/12/14 05:46:11;;;;;;;13.98;11.10;;;;;;;7.74;76.97;99854.75;2620653;46;20030;-68
2021/12/14 05:48:59;;;;;;;14.63;11.45;;;;;;;7.63;77.17;99868.09;2619361;47;20023;-68
2021/12/14 05:51:31;;;;;;;13.30;10.02;;;;;;;7.56;77.67;99875.78;2618977;54;20054;-69
2021/12/14 05:54:02;;;;;;;12.82;10.05;;;;;;;7.60;77.43;99869.25;2618304;54;20034;-68
2021/12/14 05:56:33;;;;;;;12.80;10.85;;;;;;;7.64;77.71;99867.16;2618502;46;20030;-69
2021/12/14 05:59:06;;;;;;;15.60;13.25;;;;;;;7.71;77.71;99878.72;2618444;47;20030;-67
2021/12/14 06:01:38;;;;;;;19.75;12.80;;;;;;;7.73;77.74;99876.78;2618111;47;20045;-69
2021/12/14 06:04:11;;;;;;;17.75;13.80;;;;;;;7.69;77.80;99896.47;2618370;54;20038;-69
2021/12/14 06:06:44;;;;;;;18.23;14.00;;;;;;;7.59;77.87;99901.81;2619188;39;20434;-69
2021/12/14 06:09:18;;;;;;;17.08;13.10;;;;;;;7.60;78.04;99918.44;2618535;47;20069;-68
2021/12/14 06:12:02;;;;;;;13.52;10.23;;;;;;;7.58;77.51;99908.03;2624314;54;20019;-68
2021/12/14 06:14:42;;;;;;;12.10;10.15;;;;;;;7.51;77.81;99904.34;2629105;54;20038;-67
2021/12/14 06:17:30;;;;;;;14.25;11.73;;;;;;;7.58;77.87;99896.69;2626538;39;20449;-71
2021/12/14 06:20:04;;;;;;;15.85;11.80;;;;;;;7.60;78.01;99902.63;2619313;47;20126;-68
2021/12/14 06:22:35;;;;;;;24.90;16.48;;;;;;;7.60;78.13;99907.91;2619173;47;20082;-67
2021/12/14 06:25:09;;;;;;;21.42;15.05;;;;;;;7.59;78.02;99914.97;2619231;54;20023;-68
2021/12/14 06:27:40;;;;;;;18.20;13.73;;;;;;;7.55;78.07;99921.50;2619966;39;20401;-67
2021/12/14 06:30:15;;;;;;;16.27;11.90;;;;;;;7.56;78.40;99938.94;2619729;54;20030;-69
2021/12/14 06:32:48;;;;;;;12.05;10.13;;;;;;;7.51;78.34;99930.66;2618984;54;20029;-68
2021/12/14 06:35:22;;;;;;;13.32;11.15;;;;;;;7.56;78.52;99917.88;2619587;54;20035;-69
2021/12/14 06:38:23;;;;;;;14.73;11.07;;;;;;;7.50;78.45;99900.03;2619378;46;20033;-69
2021/12/14 06:41:03;;;;;;;13.90;10.52;;;;;;;7.53;78.54;99905.00;2619570;54;20034;-68
2021/12/14 06:43:37;;;;;;;14.55;10.95;;;;;;;7.51;78.21;99914.00;2619248;54;20026;-69
2021/12/14 06:46:15;;;;;;;13.82;10.95;;;;;;;7.51;78.46;99912.25;2620737;31;20506;-68
2021/12/14 06:48:47;;;;;;;13.88;11.25;;;;;;;7.49;77.99;99927.31;2623379;46;20018;-68
2021/12/14 06:51:23;;;;;;;14.02;11.25;;;;;;;7.54;78.15;99909.28;2622552;47;20035;-67
2021/12/14 06:54:25;;;;;;;13.77;11.10;;;;;;;7.57;78.16;99931.88;2618314;54;20061;-68
2021/12/14 06:57:14;;;;;;;13.35;10.57;;;;;;;7.42;78.11;99932.31;2618778;39;20526;-68
2021/12/14 06:59:49;;;;;;;13.05;10.00;;;;;;;7.42;77.94;99928.88;2619093;47;20033;-70
2021/12/14 07:02:32;;;;;;;15.10;10.57;;;;;;;7.32;78.23;99944.72;2619068;39;20117;-68
2021/12/14 07:05:20;;;;;;;13.93;9.55;;;;;;;7.31;78.18;99955.38;2618982;47;20027;-68
2021/12/14 07:07:54;;;;;;;13.80;9.70;;;;;;;7.28;78.30;99938.06;2617877;47;20030;-68
2021/12/14 07:10:24;;;;;;;14.43;10.05;;;;;;;7.35;78.50;99954.94;2619384;47;20033;-68
2021/12/14 07:12:59;;;;;;;15.80;10.63;;;;;;;7.31;78.08;99952.75;2619999;54;20030;-68
2021/12/14 07:15:36;;;;;;;13.30;9.27;;;;;;;7.28;78.62;99943.34;2620344;54;20125;-68
2021/12/14 07:18:08;;;;;;;12.45;9.55;;;;;;;7.36;78.62;99927.66;2620324;54;20086;-69
2021/12/14 07:20:43;;;;;;;14.65;10.07;;;;;;;7.47;78.53;99933.69;2620081;54;20026;-69
2021/12/14 07:23:25;;;;;;;15.73;9.82;;;;;;;7.46;77.79;99938.13;2618606;47;20030;-67
2021/12/14 07:25:58;;;;;;;15.40;8.88;;;;;;;7.50;78.27;99946.56;2618576;54;20064;-67
2021/12/14 07:28:32;;;;;;;13.63;9.02;;;;;;;7.49;77.84;99943.13;2619007;54;20042;-67
2021/12/14 07:31:05;;;;;;;14.70;9.38;;;;;;;7.51;77.79;99935.06;2619580;39;20402;-67
2021/12/14 07:33:37;;;;;;;12.10;8.95;;;;;;;7.48;77.99;99951.16;2619200;54;20038;-69
2021/12/14 07:36:09;;;;;;;12.77;8.50;;;;;;;7.45;77.78;99952.28;2618787;47;20046;-67
2021/12/14 07:38:47;;;;;;;11.70;8.57;;;;;;;7.40;78.06;99957.97;2618974;54;20053;-68
2021/12/14 07:41:24;;;;;;;11.57;8.82;;;;;;;7.38;77.97;99967.78;2618421;47;20034;-67
2021/12/14 07:43:59;;;;;;;11.57;7.97;;;;;;;7.39;78.04;99966.00;2618472;47;20078;-67
2021/12/14 07:46:37;;;;;;;12.07;8.32;;;;;;;7.36;77.86;99964.50;2618693;47;20154;-68
2021/12/14 07:49:11;;;;;;;9.35;6.82;;;;;;;7.39;77.68;99980.00;2618393;47;20026;-68
2021/12/14 07:51:43;;;;;;;9.18;6.50;;;;;;;7.31;77.59;99981.69;2619072;47;20030;-68
2021/12/14 07:54:15;;;;;;;8.60;6.65;;;;;;;7.38;77.63;99983.56;2622045;54;20054;-68
2021/12/14 07:56:47;;;;;;;10.20;7.20;;;;;;;7.26;77.65;99984.72;2620514;54;20120;-67
2021/12/14 07:59:24;;;;;;;9.82;6.90;;;;;;;7.32;77.89;99984.16;2618861;54;20037;-68
2021/12/14 08:02:09;;;;;;;11.07;7.38;;;;;;;7.42;77.62;99984.94;2618731;54;20082;-68
2021/12/14 08:04:43;;;;;;;10.10;6.70;;;;;;;7.42;77.17;99992.00;2619539;31;20539;-68
2021/12/14 08:07:24;;;;;;;10.60;6.88;;;;;;;7.44;76.87;99995.34;2619325;39;20448;-68
2021/12/14 08:09:54;;;;;;;8.02;6.20;;;;;;;7.35;77.22;99997.03;2618850;39;20452;-67
2021/12/14 08:12:35;;;;;;;10.80;6.50;;;;;;;7.39;76.95;99994.97;2618696;54;20075;-68
2021/12/14 08:15:13;;;;;;;9.43;6.85;;;;;;;7.36;77.10;99995.22;2620236;39;20459;-66
2021/12/14 08:17:43;;;;;;;8.50;5.82;;;;;;;7.31;77.18;99989.56;2618536;54;20042;-67
2021/12/14 08:20:23;;;;;;;10.23;6.53;;;;;;;7.38;77.16;99995.91;2618159;47;20047;-67
2021/12/14 08:22:57;;;;;;;10.93;6.63;;;;;;;7.39;77.16;100000.22;2617968;47;20026;-67
2021/12/14 08:25:30;;;;;;;9.82;6.65;;;;;;;7.31;76.76;100002.72;2618836;54;20034;-66
2021/12/14 08:28:03;;;;;;;9.43;6.55;;;;;;;7.27;77.15;100002.19;2618949;54;20041;-67
2021/12/14 08:30:34;;;;;;;10.20;6.73;;;;;;;7.20;77.17;100012.44;2619116;39;20680;-67
2021/12/14 08:33:05;;;;;;;12.32;7.25;;;;;;;7.17;77.04;100012.69;2618425;54;20538;-66
2021/12/14 08:35:43;;;;;;;13.07;8.68;;;;;;;7.13;77.20;100008.69;2619019;54;20038;-68
2021/12/14 08:38:18;;;;;;;12.30;7.78;;;;;;;7.06;77.48;100012.03;2618908;54;20042;-67
2021/12/14 08:40:52;;;;;;;13.30;8.23;;;;;;;7.09;77.42;100012.56;2618813;54;20041;-66
2021/12/14 08:43:26;;;;;;;;;;;;;;;7.02;77.23;100014.13;2618617;54;20046;-66
2021/12/14 08:46:02;;;;;;;13.73;9.02;;;;;;;7.03;77.60;100007.06;2618138;47;19939;-66
2021/12/14 08:48:35;;;;;;;14.75;8.60;;;;;;;7.02;77.82;100008.00;2618692;54;20034;-66
2021/12/14 08:51:15;;;;;;;13.05;8.02;;;;;;;6.97;77.06;100010.25;2619326;39;20443;-65
2021/12/14 08:53:49;;;;;;;13.88;7.60;;;;;;;7.02;77.62;100021.16;2618488;54;20042;-66
2021/12/14 08:56:22;;;;;;;12.07;7.90;;;;;;;7.04;77.55;100022.69;2618996;54;20030;-66
2021/12/14 08:58:53;;;;;;;11.57;7.95;;;;;;;7.08;76.93;100024.06;2618948;39;20439;-66
2021/12/14 09:01:26;;;;;;;11.98;7.88;;;;;;;7.12;76.92;100022.81;2617817;54;20030;-64
2021/12/14 09:04:00;;;;;;;10.90;7.85;;;;;;;7.07;76.56;100024.22;2618147;46;20143;-65
2021/12/14 09:06:38;;;;;;;11.75;8.20;;;;;;;7.09;76.52;100030.16;2619064;39;20426;-66
2021/12/14 09:09:13;;;;;;;12.95;7.90;;;;;;;7.13;76.47;100028.91;2618606;54;20565;-67
2021/12/14 09:11:53;;;;;;;13.90;8.60;;;;;;;7.28;76.71;100024.03;2618380;54;20037;-66
2021/12/14 09:14:22;;;;;;;11.93;8.02;;;;;;;7.31;76.27;100018.50;2618246;47;20082;-65
2021/12/14 09:16:57;;;;;;;16.08;8.75;;;;;;;7.38;76.00;100015.13;2619676;39;20105;-65
2021/12/14 09:19:30;;;;;;;12.75;8.98;;;;;;;7.39;75.84;100010.75;2617867;47;20041;-65
2021/12/14 09:22:08;;;;;;;15.15;9.50;;;;;;;7.45;75.64;100007.53;2618482;54;20074;-65
2021/12/14 09:24:38;;;;;;;15.57;9.45;;;;;;;7.46;75.75;100009.16;2618726;54;20031;-65
2021/12/14 09:27:14;;;;;;;11.18;7.65;;;;;;;7.38;75.55;100023.03;2619294;54;20030;-66
2021/12/14 09:29:44;;;;;;;11.73;7.63;;;;;;;7.33;75.86;100025.28;2618967;39;20414;-66
2021/12/14 09:32:18;;;;;;;11.85;8.40;;;;;;;7.36;76.16;100032.06;2618614;54;20026;-66
2021/12/14 09:34:48;;;;;;;11.65;7.70;;;;;;;7.42;75.83;100034.94;2619033;54;20026;-66
2021/12/14 09:37:22;;;;;;;13.43;8.23;;;;;;;7.40;75.73;100033.44;2618588;54;20034;-66
2021/12/14 09:39:55;;;;;;;10.57;7.65;;;;;;;7.35;75.84;100041.75;2618586;54;20065;-66
2021/12/14 09:42:29;;;;;;;11.40;8.13;;;;;;;7.41;75.54;100038.53;2618202;54;20037;-66
2021/12/14 09:45:04;;;;;;;11.38;7.53;;;;;;;7.53;75.91;100043.66;2618848;39;20462;-66
2021/12/14 09:47:34;;;;;;;11.02;7.40;;;;;;;7.53;75.39;100043.66;2617546;54;20060;-66
2021/12/14 09:50:08;;;;;;;10.73;7.57;;;;;;;7.63;75.44;100047.06;2618208;54;20026;-66
2021/12/14 09:52:43;;;;;;;30.08;16.45;;;;;;;7.66;75.01;100042.34;2617496;47;20042;-66
2021/12/14 09:55:18;;;;;;;17.50;11.90;;;;;;;7.64;74.77;100040.84;2618751;39;20426;-66
2021/12/14 09:57:55;;;;;;;13.40;11.30;;;;;;;7.61;74.36;100039.31;2618556;39;20433;-66
2021/12/14 10:00:26;;;;;;;;;;;;;;;7.56;74.10;100046.00;2618483;54;20057;-66
2021/12/14 10:02:57;;;;;;;10.02;8.25;;;;;;;7.57;74.12;100040.59;2617366;54;19950;-67
2021/12/14 10:05:32;;;;;;;10.45;7.85;;;;;;;7.60;74.37;100042.94;2618631;39;20410;-69
2021/12/14 10:08:13;;;;;;;9.82;7.40;;;;;;;7.61;74.23;100036.69;2618534;54;20030;-68
2021/12/14 10:10:44;;;;;;;19.08;13.63;;;;;;;7.60;73.70;100037.69;2618380;54;20026;-68
2021/12/14 10:13:15;;;;;;;16.33;11.38;;;;;;;7.62;73.88;100029.63;2618883;39;20451;-69
2021/12/14 10:15:48;;;;;;;16.88;11.13;;;;;;;7.83;74.31;100035.50;2618778;54;20038;-68
2021/12/14 10:18:20;;;;;;;13.47;9.07;;;;;;;7.85;73.09;100030.09;2618488;54;20026;-68
2021/12/14 10:20:54;;;;;;;12.70;9.30;;;;;;;7.80;73.04;100021.81;2618365;54;20138;-68
2021/12/14 10:23:27;;;;;;;10.52;7.07;;;;;;;7.77;73.28;100025.56;2618460;54;20035;-68
2021/12/14 10:25:59;;;;;;;11.85;8.00;;;;;;;7.79;73.20;100031.50;2619341;54;20035;-69
2021/12/14 13:36:24;;;;;;;21.80;13.55;;;;;;;7.55;75.06;100010.09;2616858;47;20025;-68
2021/12/14 13:38:54;;;;;;;24.75;15.65;;;;;;;7.59;75.24;100007.06;2617434;47;20038;-68
2021/12/14 13:41:49;;;;;;;23.88;14.68;;;;;;;7.52;75.15;100005.97;2617793;54;20030;-67
2021/12/14 13:44:19;;;;;;;23.30;14.93;;;;;;;7.55;75.03;100012.75;2618309;54;20581;-67
2021/12/14 13:46:48;;;;;;;22.15;14.93;;;;;;;7.48;75.28;100014.31;2617369;54;20030;-67
2021/12/14 13:49:18;;;;;;;20.67;14.00;;;;;;;7.49;75.13;100010.69;2618730;54;20039;-67
2021/12/14 13:51:51;;;;;;;27.20;16.50;;;;;;;7.51;75.31;100008.75;2619815;39;20465;-67
2021/12/14 13:54:21;;;;;;;23.58;13.90;;;;;;;7.41;75.07;100012.22;2618532;54;20030;-67
2021/12/14 13:56:52;;;;;;;28.48;17.70;;;;;;;7.53;75.66;100014.69;2617527;47;20538;-68
2021/12/14 13:59:22;;;;;;;25.60;14.65;;;;;;;7.57;75.19;100016.91;2618294;54;20077;-67
2021/12/14 14:01:54;;;;;;;34.55;19.30;;;;;;;7.63;75.57;100018.13;2617340;47;20038;-68
2021/12/14 14:04:29;;;;;;;25.55;16.50;;;;;;;7.61;74.90;100027.97;2618249;54;20034;-67
2021/12/14 14:07:02;;;;;;;36.83;18.55;;;;;;;7.55;74.98;100031.16;2618248;54;20018;-67
2021/12/14 14:09:34;;;;;;;39.88;19.83;;;;;;;7.49;75.36;100031.75;2618146;54;20069;-67
2021/12/14 14:12:12;;;;;;;50.60;24.95;;;;;;;7.54;75.63;100032.16;2618257;54;20130;-67
2021/12/14 14:14:42;;;;;;;61.60;29.25;;;;;;;7.55;75.04;100039.91;2618713;39;20415;-67
2021/12/14 14:17:22;;;;;;;31.50;17.88;;;;;;;7.55;75.12;100031.16;2618210;54;20039;-66
2021/12/14 14:19:55;;;;;;;24.15;16.65;;;;;;;7.55;75.24;100037.28;2618038;39;20433;-67
2021/12/14 14:22:31;;;;;;;25.65;15.85;;;;;;;7.51;75.23;100041.16;2617929;54;20030;-66
2021/12/14 14:25:04;;;;;;;24.45;15.98;;;;;;;7.53;75.44;100049.75;2618596;39;20402;-67
2021/12/14 14:27:40;;;;;;;24.55;16.02;;;;;;;7.56;75.38;100046.81;2617573;47;20054;-67
2021/12/14 14:30:37;;;;;;;26.20;16.08;;;;;;;7.60;75.04;100052.63;2618140;54;20034;-67
2021/12/14 14:33:19;;;;;;;30.88;18.70;;;;;;;7.58;74.99;100051.94;2617180;54;20026;-67
2021/12/14 14:35:53;;;;;;;32.42;19.13;;;;;;;7.59;75.41;100051.81;2617362;54;20061;-68
2021/12/14 14:38:50;;;;;;;34.15;18.10;;;;;;;7.61;75.13;100060.38;2618102;54;20573;-66
2021/12/14 14:41:36;;;;;;;27.30;16.85;;;;;;;7.64;74.94;100059.28;2618193;54;20584;-67
2021/12/14 14:44:12;;;;;;;26.27;16.40;;;;;;;7.62;75.27;100063.84;2618006;54;20035;-66
2021/12/14 14:47:02;;;;;;;26.02;16.95;;;;;;;7.58;74.88;100065.09;2618098;54;20033;-67
2021/12/14 14:49:50;;;;;;;;;;;;;;;7.56;74.96;100059.97;2618633;39;20411;-66
2021/12/14 14:52:22;;;;;;;27.23;16.70;;;;;;;7.61;75.40;100064.81;2618624;54;20438;-67
2021/12/14 14:54:57;;;;;;;32.75;18.15;;;;;;;7.56;75.26;100069.69;2618714;54;20085;-67
2021/12/14 14:57:35;;;;;;;31.90;18.27;;;;;;;7.53;75.21;100069.97;2618743;54;20030;-67
2021/12/14 15:00:19;;;;;;;30.52;18.52;;;;;;;7.53;75.16;100073.41;2618939;54;20551;-67
2021/12/14 15:02:53;;;;;;;28.23;17.40;;;;;;;7.52;75.48;100078.84;2618574;54;20031;-67
2021/12/14 15:05:32;;;;;;;30.00;17.63;;;;;;;7.50;75.69;100078.13;2618840;54;20089;-66
2021/12/14 15:08:08;;;;;;;29.98;18.15;;;;;;;7.50;75.78;100088.66;2618839;54;20041;-67
2021/12/14 15:10:46;;;;;;;30.92;19.48;;;;;;;7.45;76.19;100087.28;2618449;54;20034;-67
2021/12/14 15:13:27;;;;;;;31.02;18.67;;;;;;;7.46;76.37;100090.72;2618702;54;20034;-68
2021/12/14 15:16:14;;;;;;;32.80;19.60;;;;;;;7.47;75.90;100092.41;2619042;54;20030;-67
2021/12/14 15:19:17;;;;;;;32.72;18.85;;;;;;;7.45;75.95;100099.59;2619248;54;20035;-67
2021/12/14 15:21:59;;;;;;;32.50;18.73;;;;;;;7.41;76.46;100103.50;2624025;47;20065;-67
2021/12/14 15:24:49;;;;;;;33.78;19.98;;;;;;;7.45;76.61;100105.69;2625215;54;20114;-67
2021/12/14 15:27:35;;;;;;;36.00;20.60;;;;;;;7.52;76.37;100105.97;2624949;54;20039;-67
2021/12/14 15:30:14;;;;;;;39.97;21.73;;;;;;;7.61;76.63;100113.00;2624423;54;20561;-69
2021/12/14 15:33:01;;;;;;;35.03;21.20;;;;;;;7.67;76.18;100108.97;2624197;47;20542;-67
2021/12/14 15:35:51;;;;;;;41.35;23.88;;;;;;;7.64;76.05;100111.91;2626419;39;20403;-68
2021/12/14 15:38:29;;;;;;;34.05;19.52;;;;;;;7.62;76.48;100114.66;2624215;54;20031;-68